createdAt,value
2018-11-11T00:00:09.878Z,91.40
2018-11-11T00:02:38.415Z,90.70
2018-11-11T00:05:07.980Z,90.50
2018-11-11T00:07:36.502Z,90.40
2018-11-11T00:10:05.792Z,91.40
2018-11-11T00:12:34.401Z,91.90
2018-11-11T00:15:02.998Z,91.00
2018-11-11T00:17:31.534Z,90.70
2018-11-11T00:20:00.093Z,90.50
2018-11-11T00:22:28.771Z,90.50
2018-11-11T00:24:57.319Z,91.40
2018-11-11T00:27:25.871Z,90.90
2018-11-11T00:29:54.531Z,90.80
2018-11-11T00:32:23.293Z,92.70
2018-11-11T00:34:51.869Z,92.60
2018-11-11T00:37:20.431Z,91.30
2018-11-11T00:39:48.999Z,90.80
2018-11-11T00:42:17.553Z,90.60
2018-11-11T00:44:46.215Z,90.50
2018-11-11T00:47:14.750Z,90.80
2018-11-11T00:49:43.415Z,90.50
2018-11-11T00:52:11.971Z,90.50
2018-11-11T00:54:40.531Z,90.20
2018-11-11T00:57:09.352Z,90.20
2018-11-11T00:59:38.840Z,90.40
2018-11-11T01:02:07.377Z,90.20
2018-11-11T01:04:35.949Z,90.30
2018-11-11T01:07:04.543Z,90.10
2018-11-11T01:09:33.128Z,90.60
2018-11-11T01:12:01.752Z,90.50
2018-11-11T01:14:30.317Z,90.40
2018-11-11T01:16:58.844Z,90.30
2018-11-11T01:19:27.419Z,90.50
2018-11-11T01:21:55.951Z,90.20
2018-11-11T01:24:24.813Z,90.30
2018-11-11T01:26:53.351Z,90.10
2018-11-11T01:29:21.885Z,90.10
2018-11-11T01:31:51.506Z,90.20
2018-11-11T01:34:20.070Z,90.40
2018-11-11T01:36:48.645Z,90.50
2018-11-11T01:39:17.387Z,90.40
2018-11-11T01:41:45.967Z,90.30
2018-11-11T01:44:14.518Z,90.00
2018-11-11T01:46:43.144Z,90.30
2018-11-11T01:49:12.330Z,90.30
2018-11-11T01:51:41.112Z,90.50
2018-11-11T01:54:09.645Z,90.50
2018-11-11T01:56:38.356Z,90.40
2018-11-11T01:59:06.920Z,90.40
2018-11-11T02:01:35.593Z,90.30
2018-11-11T02:04:04.214Z,90.90
2018-11-11T02:06:32.778Z,90.70
2018-11-11T02:09:01.341Z,90.50
2018-11-11T02:11:29.950Z,90.30
2018-11-11T02:13:59.050Z,90.30
2018-11-11T02:16:27.626Z,90.10
2018-11-11T02:18:56.154Z,90.20
2018-11-11T02:21:24.716Z,90.20
2018-11-11T02:23:53.327Z,90.20
2018-11-11T02:26:21.886Z,90.20
2018-11-11T02:28:50.418Z,90.10
2018-11-11T02:31:19.034Z,90.10
2018-11-11T02:33:47.578Z,90.10
2018-11-11T02:36:16.141Z,90.00
2018-11-11T02:38:44.683Z,90.10
2018-11-11T02:41:13.249Z,90.00
2018-11-11T02:43:41.798Z,90.00
2018-11-11T02:46:10.428Z,90.00
2018-11-11T02:48:38.931Z,90.30
2018-11-11T02:51:07.523Z,90.00
2018-11-11T02:53:36.061Z,90.10
2018-11-11T02:56:04.618Z,90.10
2018-11-11T02:58:33.225Z,90.10
2018-11-11T03:01:01.734Z,90.10
2018-11-11T03:03:30.275Z,90.00
2018-11-11T03:05:58.919Z,90.00
2018-11-11T03:08:27.461Z,90.00
2018-11-11T03:10:56.022Z,90.00
2018-11-11T03:13:24.561Z,90.10
2018-11-11T03:15:53.106Z,90.20
2018-11-11T03:18:21.610Z,90.20
2018-11-11T03:20:50.130Z,90.20
2018-11-11T03:23:18.661Z,90.20
2018-11-11T03:25:47.189Z,90.00
2018-11-11T03:28:15.751Z,90.00
2018-11-11T03:30:44.330Z,90.00
2018-11-11T03:33:12.865Z,90.10
2018-11-11T03:35:41.387Z,89.60
2018-11-11T03:38:09.930Z,90.00
2018-11-11T03:40:38.665Z,90.00
2018-11-11T03:43:07.241Z,90.10
2018-11-11T03:45:35.776Z,90.00
2018-11-11T03:48:04.442Z,90.10
2018-11-11T03:50:32.950Z,90.20
2018-11-11T03:53:01.531Z,90.10
2018-11-11T03:55:30.084Z,90.50
2018-11-11T03:57:58.629Z,90.20
2018-11-11T04:00:27.163Z,90.20
2018-11-11T04:02:55.716Z,90.40
2018-11-11T04:05:24.229Z,90.50
2018-11-11T04:07:52.775Z,90.50
2018-11-11T04:10:21.399Z,90.30
2018-11-11T04:12:50.275Z,90.30
2018-11-11T04:15:19.972Z,90.50
2018-11-11T04:17:48.707Z,90.50
2018-11-11T04:20:18.654Z,90.40
2018-11-11T04:22:47.207Z,90.30
2018-11-11T04:25:16.657Z,90.30
2018-11-11T04:27:45.768Z,90.30
2018-11-11T04:30:15.758Z,90.10
2018-11-11T04:32:45.036Z,90.10
2018-11-11T04:35:14.067Z,90.20
2018-11-11T04:37:43.182Z,90.30
2018-11-11T04:40:12.815Z,90.50
2018-11-11T04:42:41.391Z,90.50
2018-11-11T04:45:12.406Z,90.40
2018-11-11T04:47:41.304Z,90.40
2018-11-11T04:50:11.906Z,90.90
2018-11-11T04:52:40.659Z,91.10
2018-11-11T04:55:09.896Z,91.20
2018-11-11T04:57:38.703Z,91.30
2018-11-11T05:00:08.625Z,91.50
2018-11-11T05:02:37.414Z,91.60
2018-11-11T05:05:06.907Z,92.40
2018-11-11T05:07:35.458Z,92.00
2018-11-11T05:10:04.379Z,92.60
2018-11-11T05:12:32.976Z,93.30
2018-11-11T05:15:01.580Z,92.70
2018-11-11T05:17:30.198Z,94.80
2018-11-11T05:19:58.738Z,94.10
2018-11-11T05:22:27.281Z,93.40
2018-11-11T05:24:55.842Z,93.80
2018-11-11T05:27:24.352Z,94.30
2018-11-11T05:29:52.918Z,96.50
2018-11-11T05:32:21.469Z,96.90
2018-11-11T05:34:50.014Z,95.30
2018-11-11T05:37:18.529Z,93.90
2018-11-11T05:39:47.057Z,93.10
2018-11-11T05:42:15.575Z,92.70
2018-11-11T05:44:44.146Z,92.50
2018-11-11T05:47:13.325Z,92.30
2018-11-11T05:49:41.889Z,92.30
2018-11-11T05:52:10.434Z,92.30
2018-11-11T05:54:38.979Z,92.30
2018-11-11T05:57:08.220Z,93.00
2018-11-11T05:59:37.353Z,92.60
2018-11-11T06:02:05.925Z,92.40
2018-11-11T06:04:34.518Z,92.30
2018-11-11T06:07:03.045Z,92.20
2018-11-11T06:09:31.589Z,92.40
2018-11-11T06:12:00.145Z,92.30
2018-11-11T06:14:28.697Z,92.40
2018-11-11T06:16:57.258Z,92.30
2018-11-11T06:19:25.808Z,92.30
2018-11-11T06:21:54.571Z,92.30
2018-11-11T06:24:23.175Z,92.00
2018-11-11T06:26:51.776Z,92.30
2018-11-11T06:29:20.347Z,92.30
2018-11-11T06:31:48.980Z,92.20
2018-11-11T06:34:17.728Z,92.30
2018-11-11T06:36:46.231Z,92.60
2018-11-11T06:39:14.795Z,92.90
2018-11-11T06:41:43.315Z,93.90
2018-11-11T06:44:11.902Z,95.60
2018-11-11T06:46:40.432Z,94.90
2018-11-11T06:49:09.395Z,93.50
2018-11-11T06:51:37.943Z,92.90
2018-11-11T06:54:06.693Z,92.70
2018-11-11T06:56:35.242Z,92.60
2018-11-11T06:59:03.829Z,92.50
2018-11-11T07:01:32.434Z,92.40
2018-11-11T07:04:02.115Z,92.70
2018-11-11T07:06:31.305Z,93.20
2018-11-11T07:09:00.423Z,94.80
2018-11-11T07:11:28.996Z,95.10
2018-11-11T07:13:57.546Z,95.10
2018-11-11T07:16:26.231Z,94.20
2018-11-11T07:18:54.753Z,93.70
2018-11-11T07:21:23.290Z,93.20
2018-11-11T07:23:51.852Z,92.80
2018-11-11T07:26:20.366Z,93.00
2018-11-11T07:28:48.895Z,93.00
2018-11-11T07:31:17.443Z,92.70
2018-11-11T07:33:45.975Z,92.70
2018-11-11T07:36:14.535Z,92.70
2018-11-11T07:38:43.054Z,92.60
2018-11-11T07:41:11.587Z,92.50
2018-11-11T07:43:40.105Z,92.50
2018-11-11T07:46:08.662Z,93.10
2018-11-11T07:48:37.215Z,92.70
2018-11-11T07:51:06.255Z,92.40
2018-11-11T07:53:34.770Z,92.40
2018-11-11T07:56:03.306Z,92.80
2018-11-11T07:58:31.977Z,92.70
2018-11-11T08:01:00.440Z,92.60
2018-11-11T08:03:29.140Z,92.70
2018-11-11T08:05:57.694Z,93.00
2018-11-11T08:08:26.200Z,92.80
2018-11-11T08:11:06.033Z,92.50
2018-11-11T08:13:34.526Z,93.30
2018-11-11T08:16:03.110Z,92.80
2018-11-11T08:18:31.682Z,92.10
2018-11-11T08:21:00.422Z,91.60
2018-11-11T08:23:28.963Z,91.60
2018-11-11T08:25:57.609Z,91.90
2018-11-11T08:28:26.206Z,92.10
2018-11-11T08:30:54.938Z,92.20
2018-11-11T08:33:23.524Z,92.20
2018-11-11T08:35:52.157Z,92.10
2018-11-11T08:38:20.721Z,92.00
2018-11-11T08:40:49.419Z,92.10
2018-11-11T08:43:17.948Z,92.40
2018-11-11T08:45:46.492Z,92.20
2018-11-11T08:48:15.080Z,92.20
2018-11-11T08:50:43.731Z,92.40
2018-11-11T08:53:12.258Z,93.20
2018-11-11T08:55:40.807Z,92.50
2018-11-11T08:58:09.554Z,93.50
2018-11-11T09:00:38.300Z,93.10
2018-11-11T09:03:07.249Z,92.50
2018-11-11T09:05:35.835Z,94.80
2018-11-11T09:08:04.548Z,96.20
2018-11-11T09:10:33.203Z,93.90
2018-11-11T09:13:01.879Z,93.10
2018-11-11T09:15:30.422Z,94.90
2018-11-11T09:17:59.034Z,95.60
2018-11-11T09:20:27.558Z,93.40
2018-11-11T09:22:56.166Z,93.10
2018-11-11T09:25:25.199Z,93.20
2018-11-11T09:27:54.369Z,95.30
2018-11-11T09:30:23.480Z,93.50
2018-11-11T09:32:52.000Z,93.00
2018-11-11T09:35:20.616Z,92.90
2018-11-11T09:37:49.134Z,92.90
2018-11-11T09:40:17.679Z,92.90
2018-11-11T09:42:46.253Z,93.20
2018-11-11T09:45:16.560Z,93.30
2018-11-11T09:47:45.724Z,92.90
2018-11-11T09:50:15.884Z,93.20
2018-11-11T09:52:44.600Z,92.90
2018-11-11T09:55:13.945Z,94.40
2018-11-11T09:57:42.667Z,93.60
2018-11-11T10:00:18.044Z,92.60
2018-11-11T10:03:53.965Z,92.30
2018-11-11T10:06:25.174Z,94.80
2018-11-11T10:09:04.999Z,93.50
2018-11-11T10:12:10.201Z,93.70
2018-11-11T10:14:44.120Z,93.40
2018-11-11T10:17:20.808Z,93.10
2018-11-11T10:20:01.488Z,94.30
2018-11-11T10:22:35.262Z,96.00
2018-11-11T10:25:13.146Z,92.60
2018-11-11T10:27:52.393Z,94.90
2018-11-11T10:30:29.753Z,95.20
2018-11-11T10:33:17.093Z,95.60
2018-11-11T10:35:50.031Z,93.80
2018-11-11T10:38:54.090Z,93.80
2018-11-11T10:41:30.127Z,93.40
2018-11-11T10:44:02.137Z,93.60
2018-11-11T10:46:37.864Z,93.60
2018-11-11T10:49:08.813Z,95.10
2018-11-11T10:51:37.393Z,92.50
2018-11-11T10:54:06.467Z,94.50
2018-11-11T10:56:35.030Z,93.00
2018-11-11T10:59:03.626Z,92.60
2018-11-11T11:01:37.426Z,95.70
2018-11-11T11:04:06.005Z,94.70
2018-11-11T11:06:39.913Z,94.40
2018-11-11T11:09:13.478Z,95.10
2018-11-11T11:11:43.366Z,95.40
2018-11-11T11:14:12.506Z,95.70
2018-11-11T11:16:41.337Z,94.40
2018-11-11T11:19:09.956Z,94.60
2018-11-11T11:21:38.649Z,92.50
2018-11-11T11:24:07.423Z,92.30
2018-11-11T11:26:35.992Z,90.70
2018-11-11T11:29:05.023Z,90.30
2018-11-11T11:31:33.596Z,92.20
2018-11-11T11:34:02.110Z,91.10
2018-11-11T11:36:30.651Z,90.30
2018-11-11T11:38:59.229Z,89.80
2018-11-11T11:41:27.889Z,90.00
2018-11-11T11:43:56.386Z,91.20
2018-11-11T11:46:24.980Z,91.90
2018-11-11T11:48:53.498Z,91.40
2018-11-11T11:51:22.127Z,91.70
2018-11-11T11:53:50.631Z,92.00
2018-11-11T11:56:19.166Z,92.10
2018-11-11T11:58:47.714Z,92.60
2018-11-11T12:01:16.271Z,91.70
2018-11-11T12:03:45.267Z,92.10
2018-11-11T12:06:13.829Z,92.40
2018-11-11T12:08:42.585Z,92.50
2018-11-11T12:11:11.082Z,93.00
2018-11-11T12:13:39.629Z,92.80
2018-11-11T12:16:08.183Z,91.50
2018-11-11T12:18:36.738Z,91.30
2018-11-11T12:21:05.479Z,91.80
2018-11-11T12:23:34.022Z,93.00
2018-11-11T12:26:02.579Z,91.40
2018-11-11T12:28:31.152Z,91.30
2018-11-11T12:30:59.824Z,92.80
2018-11-11T12:33:28.461Z,92.10
2018-11-11T12:35:57.069Z,90.70
2018-11-11T12:38:25.613Z,90.10
2018-11-11T12:40:54.209Z,90.10
2018-11-11T12:43:22.810Z,90.20
2018-11-11T12:45:51.406Z,90.40
2018-11-11T12:48:19.955Z,89.90
2018-11-11T12:50:48.525Z,90.50
2018-11-11T12:53:17.152Z,87.20
2018-11-11T12:55:45.715Z,87.20
2018-11-11T12:58:14.255Z,88.20
2018-11-11T13:00:42.880Z,88.00
2018-11-11T13:03:11.450Z,86.50
2018-11-11T13:05:40.014Z,85.50
2018-11-11T13:08:08.551Z,85.80
2018-11-11T13:10:37.136Z,85.70
2018-11-11T13:13:05.702Z,84.50
2018-11-11T13:15:34.273Z,86.20
2018-11-11T13:18:02.883Z,87.20
2018-11-11T13:20:31.429Z,86.30
2018-11-11T13:23:00.803Z,86.70
2018-11-11T13:25:29.242Z,86.70
2018-11-11T13:27:57.745Z,86.50
2018-11-11T13:30:26.813Z,85.80
2018-11-11T13:32:55.364Z,82.90
2018-11-11T13:35:24.496Z,84.20
2018-11-11T13:37:53.082Z,82.70
2018-11-11T13:40:21.594Z,84.70
2018-11-11T13:42:50.120Z,84.00
2018-11-11T13:45:20.203Z,81.80
2018-11-11T13:47:49.398Z,80.40
2018-11-11T13:50:19.331Z,79.90
2018-11-11T13:52:48.409Z,80.90
2018-11-11T13:55:17.684Z,81.30
2018-11-11T13:57:46.718Z,80.50
2018-11-11T14:00:19.697Z,81.00
2018-11-11T14:02:48.397Z,81.90
2018-11-11T14:05:16.915Z,79.80
2018-11-11T14:07:45.851Z,82.70
2018-11-11T14:10:14.958Z,82.90
2018-11-11T14:12:43.562Z,81.80
2018-11-11T14:15:15.753Z,82.10
2018-11-11T14:17:45.105Z,81.10
2018-11-11T14:20:14.823Z,80.00
2018-11-11T14:22:44.840Z,80.50
2018-11-11T14:25:18.205Z,81.50
2018-11-11T14:27:46.905Z,79.90
2018-11-11T14:30:17.698Z,79.90
2018-11-11T14:32:47.115Z,79.10
2018-11-11T14:35:15.579Z,79.40
2018-11-11T14:37:44.454Z,78.60
2018-11-11T14:40:16.621Z,78.90
2018-11-11T14:42:45.293Z,79.70
2018-11-11T14:45:14.874Z,81.30
2018-11-11T14:47:44.688Z,79.80
2018-11-11T14:50:14.517Z,80.30
2018-11-11T14:52:43.888Z,81.60
2018-11-11T14:55:15.004Z,83.40
2018-11-11T14:57:43.649Z,84.80
2018-11-11T15:00:16.548Z,84.90
2018-11-11T15:02:50.973Z,84.70
2018-11-11T15:05:19.510Z,85.10
2018-11-11T15:07:48.084Z,86.60
2018-11-11T15:10:16.599Z,87.10
2018-11-11T15:12:45.192Z,87.70
2018-11-11T15:15:17.958Z,88.30
2018-11-11T15:17:47.288Z,88.60
2018-11-11T15:20:16.800Z,89.90
2018-11-11T15:22:46.060Z,90.00
2018-11-11T15:25:16.116Z,90.10
2018-11-11T15:27:45.585Z,90.10
2018-11-11T15:30:16.989Z,90.60
2018-11-11T15:32:46.250Z,91.60
2018-11-11T15:35:15.116Z,91.20
2018-11-11T15:37:43.771Z,90.80
2018-11-11T15:40:14.849Z,90.70
2018-11-11T15:42:43.444Z,90.70
2018-11-11T15:45:14.501Z,90.70
2018-11-11T15:47:43.130Z,91.10
2018-11-11T15:50:15.239Z,90.70
2018-11-11T15:52:47.319Z,90.80
2018-11-11T15:55:16.718Z,90.80
2018-11-11T15:57:45.254Z,90.80
2018-11-11T16:00:25.552Z,90.90
2018-11-11T16:02:54.169Z,90.90
2018-11-11T16:05:22.706Z,91.00
2018-11-11T16:07:52.230Z,91.00
2018-11-11T16:10:22.149Z,91.10
2018-11-11T16:12:51.112Z,91.10
2018-11-11T16:15:22.942Z,91.10
2018-11-11T16:17:53.196Z,91.00
2018-11-11T16:20:23.169Z,91.10
2018-11-11T16:22:53.282Z,91.10
2018-11-11T16:25:21.991Z,91.20
2018-11-11T16:27:50.908Z,91.50
2018-11-11T16:30:21.679Z,91.10
2018-11-11T16:32:50.943Z,91.20
2018-11-11T16:35:20.890Z,91.20
2018-11-11T16:37:49.517Z,91.20
2018-11-11T16:40:19.490Z,91.30
2018-11-11T16:42:48.517Z,91.30
2018-11-11T16:45:19.747Z,91.30
2018-11-11T16:47:48.364Z,91.30
2018-11-11T16:50:19.263Z,91.40
2018-11-11T16:52:48.811Z,91.40
2018-11-11T16:55:18.761Z,91.40
2018-11-11T16:57:47.532Z,91.40
2018-11-11T17:00:17.516Z,91.40
2018-11-11T17:02:46.676Z,91.50
2018-11-11T17:05:17.607Z,91.50
2018-11-11T17:07:46.705Z,91.50
2018-11-11T17:10:16.639Z,92.00
2018-11-11T17:12:46.211Z,91.80
2018-11-11T17:15:16.017Z,91.70
2018-11-11T17:17:44.556Z,91.70
2018-11-11T17:20:16.591Z,91.70
2018-11-11T17:22:45.884Z,92.00
2018-11-11T17:25:15.255Z,92.20
2018-11-11T17:27:44.274Z,92.00
2018-11-11T17:30:16.154Z,91.90
2018-11-11T17:32:45.692Z,91.80
2018-11-11T17:35:14.277Z,91.80
2018-11-11T17:37:43.433Z,91.80
2018-11-11T17:40:16.282Z,91.90
2018-11-11T17:42:45.914Z,91.90
2018-11-11T17:45:15.038Z,91.90
2018-11-11T17:47:44.307Z,91.90
2018-11-11T17:50:15.566Z,91.90
2018-11-11T17:52:44.240Z,91.90
2018-11-11T17:55:15.469Z,91.90
2018-11-11T17:57:44.477Z,91.90
2018-11-11T18:00:14.549Z,92.00
2018-11-11T18:02:43.355Z,92.00
2018-11-11T18:05:12.982Z,92.00
2018-11-11T18:07:41.530Z,92.10
2018-11-11T18:10:12.732Z,92.40
2018-11-11T18:12:41.329Z,93.60
2018-11-11T18:15:11.886Z,90.10
2018-11-11T18:17:41.065Z,87.50
2018-11-11T18:20:12.618Z,85.50
2018-11-11T18:22:41.202Z,84.60
2018-11-11T18:25:09.811Z,83.70
2018-11-11T18:27:38.477Z,83.50
2018-11-11T18:30:11.581Z,82.20
2018-11-11T18:32:40.122Z,82.10
2018-11-11T18:35:10.899Z,81.60
2018-11-11T18:37:39.488Z,81.20
2018-11-11T18:40:09.861Z,81.00
2018-11-11T18:42:38.346Z,80.70
2018-11-11T18:45:09.658Z,81.60
2018-11-11T18:47:38.390Z,81.70
2018-11-11T18:50:09.799Z,81.20
2018-11-11T18:52:38.349Z,80.70
2018-11-11T18:55:07.536Z,80.60
2018-11-11T18:57:37.488Z,80.10
2018-11-11T19:00:08.575Z,80.20
2018-11-11T19:02:37.087Z,80.30
2018-11-11T19:05:06.698Z,80.40
2018-11-11T19:07:35.350Z,79.90
2018-11-11T19:10:04.077Z,81.00
2018-11-11T19:12:32.835Z,80.70
2018-11-11T19:15:01.407Z,80.40
2018-11-11T19:17:29.966Z,80.10
2018-11-11T19:19:58.790Z,80.10
2018-11-11T19:22:27.340Z,79.80
2018-11-11T19:24:55.962Z,79.70
2018-11-11T19:27:24.673Z,79.70
2018-11-11T19:29:53.250Z,79.80
2018-11-11T19:32:21.837Z,79.50
2018-11-11T19:34:50.427Z,79.40
2018-11-11T19:37:18.990Z,79.50
2018-11-11T19:39:47.574Z,79.60
2018-11-11T19:42:16.196Z,79.00
2018-11-11T19:44:44.760Z,78.90
2018-11-11T19:47:14.262Z,79.00
2018-11-11T19:49:42.810Z,79.00
2018-11-11T19:52:11.387Z,79.20
2018-11-11T19:54:39.941Z,79.20
2018-11-11T19:57:08.538Z,78.90
2018-11-11T19:59:37.841Z,79.10
2018-11-11T20:02:07.320Z,78.70
2018-11-11T20:04:35.861Z,78.90
2018-11-11T20:07:04.877Z,79.30
2018-11-11T20:09:33.438Z,79.10
2018-11-11T20:12:02.007Z,78.60
2018-11-11T20:14:30.531Z,78.50
2018-11-11T20:16:59.170Z,78.70
2018-11-11T20:19:27.886Z,78.50
2018-11-11T20:21:56.466Z,78.40
2018-11-11T20:24:25.009Z,78.50
2018-11-11T20:26:53.635Z,78.30
2018-11-11T20:29:22.349Z,78.30
2018-11-11T20:31:50.905Z,78.60
2018-11-11T20:34:19.428Z,78.80
2018-11-11T20:36:47.963Z,78.50
2018-11-11T20:39:16.530Z,78.50
2018-11-11T20:41:45.059Z,78.20
2018-11-11T20:44:13.602Z,78.20
2018-11-11T20:46:42.162Z,77.70
2018-11-11T20:49:10.715Z,77.70
2018-11-11T20:51:39.273Z,77.40
2018-11-11T20:54:07.826Z,77.10
2018-11-11T20:56:36.492Z,77.70
2018-11-11T20:59:05.282Z,77.50
2018-11-11T21:01:33.904Z,77.40
2018-11-11T21:04:02.498Z,77.30
2018-11-11T21:06:31.022Z,77.00
2018-11-11T21:08:59.639Z,76.90
2018-11-11T21:11:28.227Z,76.50
2018-11-11T21:13:56.801Z,76.70
2018-11-11T21:16:27.503Z,76.50
2018-11-11T21:18:56.370Z,76.30
2018-11-11T21:21:25.079Z,76.30
2018-11-11T21:23:54.646Z,76.10
2018-11-11T21:26:25.801Z,76.00
2018-11-11T21:28:54.418Z,76.40
2018-11-11T21:31:23.190Z,76.50
2018-11-11T21:33:51.774Z,76.20
2018-11-11T21:36:20.322Z,76.00
2018-11-11T21:38:49.782Z,75.80
2018-11-11T21:41:18.374Z,75.70
2018-11-11T21:43:46.983Z,75.70
2018-11-11T21:46:17.116Z,75.80
2018-11-11T21:48:47.178Z,75.40
2018-11-11T21:51:15.745Z,75.50
2018-11-11T21:53:44.512Z,75.40
2018-11-11T21:56:13.790Z,75.50
2018-11-11T21:58:42.392Z,75.20
2018-11-11T22:01:11.061Z,75.10
2018-11-11T22:03:40.413Z,75.20
2018-11-11T22:06:08.954Z,75.00
2018-11-11T22:08:37.678Z,75.00
2018-11-11T22:11:06.634Z,74.90
2018-11-11T22:13:35.198Z,75.00
2018-11-11T22:16:04.078Z,75.30
2018-11-11T22:18:32.531Z,75.50
2018-11-11T22:21:01.224Z,75.60
2018-11-11T22:23:29.817Z,75.90
2018-11-11T22:25:58.383Z,75.90
2018-11-11T22:28:27.174Z,75.70
2018-11-11T22:30:55.734Z,75.70
2018-11-11T22:33:24.300Z,75.90
2018-11-11T22:35:52.928Z,75.50
2018-11-11T22:38:21.463Z,75.40
2018-11-11T22:40:50.934Z,75.30
2018-11-11T22:43:19.465Z,75.40
2018-11-11T22:45:48.013Z,75.40
2018-11-11T22:48:16.749Z,75.10
2018-11-11T22:50:45.328Z,75.30
2018-11-11T22:53:14.071Z,75.60
2018-11-11T22:55:42.654Z,75.50
2018-11-11T22:58:11.507Z,75.40
2018-11-11T23:00:44.481Z,76.40
2018-11-11T23:03:13.067Z,75.80
2018-11-11T23:05:41.706Z,75.70
2018-11-11T23:08:10.527Z,75.70
2018-11-11T23:10:39.095Z,76.00
2018-11-11T23:13:07.659Z,75.30
2018-11-11T23:15:36.226Z,75.20
2018-11-11T23:18:05.062Z,75.70
2018-11-11T23:20:33.642Z,75.10
2018-11-11T23:23:02.185Z,75.30
2018-11-11T23:25:30.747Z,75.50
2018-11-11T23:27:59.383Z,75.60
2018-11-11T23:30:27.954Z,75.30
2018-11-11T23:32:56.507Z,75.40
2018-11-11T23:35:25.106Z,75.40
2018-11-11T23:37:54.336Z,75.40
2018-11-11T23:40:22.914Z,76.10
2018-11-11T23:42:51.631Z,75.40
2018-11-11T23:45:20.330Z,75.40
2018-11-11T23:47:48.885Z,75.40
2018-11-11T23:50:18.865Z,75.50
2018-11-11T23:52:47.836Z,75.60
2018-11-11T23:55:17.529Z,75.30
2018-11-11T23:57:46.120Z,75.50
